createdAt,value
2023-04-26T00:00:02.856Z,4.59
2023-04-26T00:15:02.203Z,4.5
2023-04-26T00:30:01.584Z,4.73
2023-04-26T00:45:01.905Z,4.51
2023-04-26T01:00:02.966Z,4.44
2023-04-26T01:15:02.002Z,4.63
2023-04-26T01:30:01.397Z,4.88
2023-04-26T01:45:02.012Z,4.61
2023-04-26T02:00:03.065Z,4.8
2023-04-26T02:15:02.158Z,4.86
2023-04-26T02:30:02.101Z,4.88
2023-04-26T02:45:02.167Z,5.1
2023-04-26T03:00:01.841Z,4.78
2023-04-26T03:15:02.208Z,4.73
2023-04-26T03:30:02.036Z,4.63
2023-04-26T03:45:02.207Z,4.19
2023-04-26T04:00:01.754Z,4.32
2023-04-26T04:15:02.180Z,4.53
2023-04-26T04:30:01.295Z,4.71
2023-04-26T04:45:02.212Z,4.69
2023-04-26T05:00:01.972Z,4.67
2023-04-26T05:15:02.209Z,4.98
2023-04-26T05:30:01.394Z,5.5
2023-04-26T05:45:02.249Z,5.48
2023-04-26T06:00:02.143Z,6.1
2023-04-26T06:15:02.228Z,6.53
2023-04-26T06:30:01.559Z,6.96
2023-04-26T06:45:03.040Z,7
2023-04-26T07:00:01.369Z,7
2023-04-26T07:15:01.905Z,7
2023-04-26T07:30:02.455Z,7
2023-04-26T07:45:01.314Z,7
2023-04-26T08:00:01.655Z,7
2023-04-26T08:15:01.868Z,7
2023-04-26T08:30:02.365Z,7
2023-04-26T08:45:01.612Z,7
2023-04-26T09:00:02.090Z,7
2023-04-26T09:15:01.818Z,7
2023-04-26T09:30:03.181Z,7
2023-04-26T09:45:01.560Z,7
2023-04-26T10:00:01.911Z,7
2023-04-26T10:15:02.131Z,7
2023-04-26T10:30:02.560Z,7
2023-04-26T10:45:01.830Z,7
2023-04-26T11:00:01.652Z,15.56
2023-04-26T11:15:03.029Z,15.56
2023-04-26T11:30:01.455Z,23.9
2023-04-26T11:45:02.720Z,27.29
2023-04-26T12:00:02.614Z,28.1
2023-04-26T12:15:01.788Z,25.84
2023-04-26T12:30:02.087Z,20.35
2023-04-26T12:45:01.504Z,18.63
2023-04-26T13:00:01.839Z,20.29
2023-04-26T13:15:01.681Z,21.48
2023-04-26T13:30:02.017Z,21.48
2023-04-26T13:45:02.225Z,21.48
2023-04-26T14:00:02.803Z,21.48
2023-04-26T14:15:01.766Z,21.48
2023-04-26T14:30:02.123Z,21.48
2023-04-26T14:45:02.157Z,21.48
2023-04-26T15:00:02.756Z,21.48
2023-04-26T15:15:03.286Z,21.48
2023-04-26T15:30:01.679Z,21.48
2023-04-26T15:45:02.181Z,21.48
2023-04-26T16:00:02.828Z,21.48
2023-04-26T16:15:01.873Z,21.48
2023-04-26T16:30:02.242Z,21.48
2023-04-26T16:45:02.060Z,21.48
2023-04-26T17:00:02.686Z,21.48
2023-04-26T17:15:04.550Z,21.48
2023-04-26T17:30:01.369Z,21.48
2023-04-26T17:45:01.714Z,21.48
2023-04-26T18:00:02.352Z,21.48
2023-04-26T18:15:02.944Z,21.48
2023-04-26T18:30:01.410Z,21.48
2023-04-26T18:45:01.906Z,21.48
2023-04-26T19:00:02.439Z,21.48
2023-04-26T19:15:01.299Z,21.48
2023-04-26T19:30:01.712Z,21.48
2023-04-26T19:45:01.987Z,21.48
2023-04-26T20:00:02.379Z,21.48
2023-04-26T20:15:02.925Z,21.48
2023-04-26T20:30:02.169Z,21.48
2023-04-26T20:45:02.381Z,21.48
2023-04-26T21:00:02.354Z,21.48
2023-04-26T21:15:02.812Z,21.48
2023-04-26T21:30:01.742Z,21.48
2023-04-26T21:45:01.956Z,21.48
2023-04-26T22:00:02.425Z,21.48
2023-04-26T22:15:01.411Z,21.48
2023-04-26T22:30:09.344Z,21.48
2023-04-26T22:45:02.118Z,21.48
2023-04-26T23:00:02.343Z,21.48
2023-04-26T23:15:01.498Z,21.48
2023-04-26T23:30:01.884Z,21.48
2023-04-26T23:45:02.220Z,21.48
